createdAt,value
2022-11-18T00:00:59.489Z,0
2022-11-18T00:01:59.760Z,0
2022-11-18T00:02:59.485Z,0
2022-11-18T00:03:59.488Z,0
2022-11-18T00:04:59.516Z,0
2022-11-18T00:05:59.507Z,0
2022-11-18T00:06:59.750Z,0
2022-11-18T00:07:59.562Z,0
2022-11-18T00:08:59.530Z,0
2022-11-18T00:10:00.136Z,0
2022-11-18T00:10:59.498Z,0
2022-11-18T00:11:59.499Z,0
2022-11-18T00:12:59.498Z,0
2022-11-18T00:13:59.501Z,0
2022-11-18T00:15:00.624Z,0
2022-11-18T00:15:59.514Z,0
2022-11-18T00:16:59.485Z,0
2022-11-18T00:17:59.519Z,0
2022-11-18T00:18:59.496Z,0
2022-11-18T00:19:59.543Z,0
2022-11-18T00:21:02.587Z,0
2022-11-18T00:21:59.533Z,0
2022-11-18T00:22:59.510Z,0
2022-11-18T00:23:59.651Z,0
2022-11-18T00:24:59.609Z,0
2022-11-18T00:26:02.369Z,0
2022-11-18T00:26:59.521Z,0
2022-11-18T00:27:59.553Z,0
2022-11-18T00:28:59.523Z,0
2022-11-18T00:29:59.552Z,0
2022-11-18T00:30:59.550Z,0
2022-11-18T00:32:02.285Z,0
2022-11-18T00:32:59.517Z,0
2022-11-18T00:33:59.535Z,0
2022-11-18T00:34:59.404Z,0
2022-11-18T00:35:59.544Z,0
2022-11-18T00:37:02.546Z,0
2022-11-18T00:37:59.548Z,0
2022-11-18T00:38:59.548Z,0
2022-11-18T00:40:02.732Z,0
2022-11-18T00:40:59.556Z,0
2022-11-18T00:41:59.544Z,0
2022-11-18T00:43:02.386Z,0
2022-11-18T00:44:00.427Z,0
2022-11-18T00:44:59.570Z,0
2022-11-18T00:45:59.552Z,0
2022-11-18T00:47:02.664Z,0
2022-11-18T00:48:03.364Z,0
2022-11-18T00:48:59.548Z,0
2022-11-18T00:49:59.589Z,0
2022-11-18T00:50:59.564Z,0
2022-11-18T00:51:59.560Z,0
2022-11-18T00:52:59.533Z,0
2022-11-18T00:53:59.595Z,0
2022-11-18T00:54:59.589Z,0
2022-11-18T00:55:59.946Z,0
2022-11-18T00:56:59.600Z,0
2022-11-18T00:57:59.580Z,0
2022-11-18T00:59:02.677Z,0
2022-11-18T00:59:59.602Z,0
2022-11-18T01:00:59.878Z,0
2022-11-18T01:01:59.914Z,0
2022-11-18T01:03:00.630Z,0
2022-11-18T01:03:59.603Z,0
2022-11-18T01:04:59.623Z,0
2022-11-18T01:05:59.617Z,0
2022-11-18T01:06:59.910Z,0
2022-11-18T01:07:59.593Z,0
2022-11-18T01:08:59.618Z,0
2022-11-18T01:09:59.639Z,0
2022-11-18T01:10:59.633Z,0
2022-11-18T01:11:59.638Z,0
2022-11-18T01:13:01.452Z,0
2022-11-18T01:13:59.614Z,0
2022-11-18T01:14:59.603Z,0
2022-11-18T01:15:59.600Z,0
2022-11-18T01:16:59.590Z,0
2022-11-18T01:17:59.591Z,0
2022-11-18T01:18:59.688Z,0
2022-11-18T01:19:59.642Z,0
2022-11-18T01:20:59.609Z,0
2022-11-18T01:21:59.639Z,0
2022-11-18T01:22:59.606Z,0
2022-11-18T01:23:59.637Z,0
2022-11-18T01:25:02.735Z,0
2022-11-18T01:26:02.439Z,0
2022-11-18T01:26:59.632Z,0
2022-11-18T01:27:59.693Z,0
2022-11-18T01:28:59.639Z,0
2022-11-18T01:29:59.620Z,0
2022-11-18T01:31:02.648Z,0
2022-11-18T01:32:31.445Z,0
2022-11-18T01:33:00.618Z,0
2022-11-18T01:33:59.624Z,0
2022-11-18T01:34:59.652Z,0
2022-11-18T01:35:59.631Z,0
2022-11-18T01:37:00.688Z,0
2022-11-18T01:37:59.654Z,0
2022-11-18T01:38:59.629Z,0
2022-11-18T01:39:59.638Z,0
2022-11-18T01:40:59.651Z,0
2022-11-18T01:42:02.701Z,0
2022-11-18T01:42:59.645Z,0
2022-11-18T01:43:59.742Z,0
2022-11-18T01:44:59.673Z,0
2022-11-18T01:45:59.661Z,0
2022-11-18T01:46:59.654Z,0
2022-11-18T01:48:02.415Z,0
2022-11-18T01:48:59.676Z,0
2022-11-18T01:49:59.653Z,0
2022-11-18T01:50:59.680Z,0
2022-11-18T01:51:59.675Z,0
2022-11-18T01:53:02.693Z,0
2022-11-18T01:53:59.685Z,0
2022-11-18T01:54:59.644Z,0
2022-11-18T01:55:59.684Z,0
2022-11-18T01:56:59.668Z,0
2022-11-18T01:57:59.660Z,0
2022-11-18T01:59:02.507Z,0
2022-11-18T01:59:59.688Z,0
2022-11-18T02:01:00.020Z,0
2022-11-18T02:02:05.474Z,0
2022-11-18T02:02:59.818Z,0
2022-11-18T02:04:02.676Z,0
2022-11-18T02:04:59.912Z,0
2022-11-18T02:05:59.694Z,0
2022-11-18T02:07:00.294Z,0
2022-11-18T02:07:59.879Z,0
2022-11-18T02:08:59.689Z,0
2022-11-18T02:09:59.704Z,0
2022-11-18T02:10:59.712Z,0
2022-11-18T02:11:59.975Z,0
2022-11-18T02:12:59.682Z,0
2022-11-18T02:13:59.697Z,0
2022-11-18T02:15:02.864Z,0
2022-11-18T02:15:59.696Z,0
2022-11-18T02:16:59.736Z,0
2022-11-18T02:17:59.712Z,0
2022-11-18T02:18:59.719Z,0
2022-11-18T02:19:59.692Z,0
2022-11-18T02:20:59.724Z,0
2022-11-18T02:21:59.699Z,0
2022-11-18T02:23:00.854Z,0
2022-11-18T02:23:59.700Z,0
2022-11-18T02:24:59.739Z,0
2022-11-18T02:26:02.825Z,0
2022-11-18T02:26:59.729Z,0
2022-11-18T02:27:59.710Z,0
2022-11-18T02:28:59.735Z,0
2022-11-18T02:29:59.702Z,0
2022-11-18T02:30:59.796Z,0
2022-11-18T02:31:59.732Z,0
2022-11-18T02:32:59.759Z,0
2022-11-18T02:33:59.765Z,0
2022-11-18T02:34:59.828Z,0
2022-11-18T02:35:59.764Z,0
2022-11-18T02:37:08.480Z,0
2022-11-18T02:37:59.749Z,0
2022-11-18T02:39:00.765Z,0
2022-11-18T02:39:59.725Z,0
2022-11-18T02:40:59.757Z,0
2022-11-18T02:41:59.754Z,0
2022-11-18T02:42:59.739Z,0
2022-11-18T02:43:59.737Z,0
2022-11-18T02:44:59.739Z,0
2022-11-18T02:45:59.783Z,0
2022-11-18T02:46:59.820Z,0
2022-11-18T02:48:00.818Z,0
2022-11-18T02:48:59.809Z,0
2022-11-18T02:50:02.757Z,0
2022-11-18T02:50:59.781Z,0
2022-11-18T02:51:59.752Z,0
2022-11-18T02:53:05.863Z,0
2022-11-18T02:54:05.924Z,0
2022-11-18T02:54:59.752Z,0
2022-11-18T02:55:59.836Z,0
2022-11-18T02:56:59.813Z,0
2022-11-18T02:57:59.801Z,0
2022-11-18T02:59:02.855Z,0
2022-11-18T02:59:59.741Z,0
2022-11-18T03:01:00.025Z,0
2022-11-18T03:02:00.196Z,0
2022-11-18T03:02:59.837Z,0
2022-11-18T03:04:02.876Z,0
2022-11-18T03:04:59.770Z,0
2022-11-18T03:05:59.820Z,0
2022-11-18T03:07:00.287Z,0
2022-11-18T03:08:00.803Z,0
2022-11-18T03:08:59.791Z,0
2022-11-18T03:10:02.728Z,0
2022-11-18T03:10:59.901Z,0
2022-11-18T03:11:59.800Z,0
2022-11-18T03:12:59.793Z,0
2022-11-18T03:13:59.807Z,0
2022-11-18T03:15:02.896Z,0
2022-11-18T03:15:59.844Z,0
2022-11-18T03:16:59.795Z,0
2022-11-18T03:17:59.790Z,0
2022-11-18T03:18:59.843Z,0
2022-11-18T03:20:00.806Z,0
2022-11-18T03:20:59.835Z,0
2022-11-18T03:21:59.784Z,0
2022-11-18T03:22:59.776Z,0
2022-11-18T03:23:59.808Z,0
2022-11-18T03:24:59.799Z,0
2022-11-18T03:26:02.654Z,0
2022-11-18T03:26:59.830Z,0
2022-11-18T03:28:02.568Z,0
2022-11-18T03:28:59.824Z,0
2022-11-18T03:29:59.807Z,0
2022-11-18T03:30:59.838Z,0
2022-11-18T03:31:59.799Z,0
2022-11-18T03:32:59.819Z,0
2022-11-18T03:33:59.817Z,0
2022-11-18T03:34:59.875Z,0
2022-11-18T03:35:59.916Z,0
2022-11-18T03:37:12.743Z,0
2022-11-18T03:37:59.822Z,0
2022-11-18T03:38:59.823Z,0
2022-11-18T03:39:59.665Z,0
2022-11-18T03:40:59.835Z,0
2022-11-18T03:41:59.860Z,0
2022-11-18T03:42:59.845Z,0
2022-11-18T03:43:59.834Z,0
2022-11-18T03:44:59.822Z,0
2022-11-18T03:45:59.896Z,0
2022-11-18T03:46:59.825Z,0
2022-11-18T03:47:59.840Z,0
2022-11-18T03:48:59.855Z,0
2022-11-18T03:49:59.832Z,0
2022-11-18T03:50:59.919Z,0
2022-11-18T03:51:59.913Z,0
2022-11-18T03:53:02.879Z,0
2022-11-18T03:53:59.848Z,0
2022-11-18T03:54:59.835Z,0
2022-11-18T03:55:59.879Z,0
2022-11-18T03:56:59.847Z,0
2022-11-18T03:58:02.962Z,0
2022-11-18T03:58:59.688Z,0
2022-11-18T03:59:59.872Z,0
2022-11-18T04:00:59.875Z,0
2022-11-18T04:02:00.316Z,0
2022-11-18T04:02:59.870Z,0
2022-11-18T04:04:02.648Z,0
2022-11-18T04:04:59.862Z,0
2022-11-18T04:05:59.895Z,0
2022-11-18T04:07:00.203Z,0
2022-11-18T04:07:59.945Z,0
2022-11-18T04:09:00.118Z,0
2022-11-18T04:09:59.911Z,0
2022-11-18T04:10:59.912Z,0
2022-11-18T04:11:59.901Z,0
2022-11-18T04:13:07.145Z,0
2022-11-18T04:13:59.881Z,0
2022-11-18T04:15:02.957Z,0
2022-11-18T04:15:59.893Z,0
2022-11-18T04:16:59.908Z,0
2022-11-18T04:17:59.875Z,0
2022-11-18T04:19:06.739Z,0
2022-11-18T04:20:03.001Z,0
2022-11-18T04:20:59.910Z,0
2022-11-18T04:21:59.886Z,0
2022-11-18T04:22:59.951Z,0
2022-11-18T04:23:59.982Z,0
2022-11-18T04:24:59.904Z,0
2022-11-18T04:26:02.999Z,0
2022-11-18T04:26:59.910Z,0
2022-11-18T04:27:59.926Z,0
2022-11-18T04:28:59.887Z,0
2022-11-18T04:29:59.921Z,0
2022-11-18T04:31:02.796Z,0
2022-11-18T04:31:59.899Z,0
2022-11-18T04:32:59.910Z,0
2022-11-18T04:33:59.910Z,0
2022-11-18T04:34:59.899Z,0
2022-11-18T04:35:59.903Z,0
2022-11-18T04:36:59.919Z,0
2022-11-18T04:37:59.912Z,0
2022-11-18T04:39:00.050Z,0
2022-11-18T04:39:59.966Z,0
2022-11-18T04:40:59.922Z,0
2022-11-18T04:42:02.802Z,0
2022-11-18T04:42:59.912Z,0
2022-11-18T04:43:59.933Z,0
2022-11-18T04:44:59.929Z,0
2022-11-18T04:45:59.929Z,0
2022-11-18T04:46:59.977Z,0
2022-11-18T04:48:07.392Z,0
2022-11-18T04:48:59.909Z,0
2022-11-18T04:49:59.911Z,0
2022-11-18T04:50:59.903Z,0
2022-11-18T04:51:59.950Z,0
2022-11-18T04:53:02.734Z,0
2022-11-18T04:53:59.921Z,0
2022-11-18T04:54:59.969Z,0
2022-11-18T04:56:00.086Z,0
2022-11-18T04:56:59.983Z,0
2022-11-18T04:57:59.966Z,0
2022-11-18T04:58:59.953Z,0
2022-11-18T04:59:59.940Z,0
2022-11-18T05:01:00.203Z,0
2022-11-18T05:01:59.998Z,0
2022-11-18T05:02:59.943Z,0
2022-11-18T05:04:03.093Z,0
2022-11-18T05:04:59.929Z,0
2022-11-18T05:05:59.960Z,0
2022-11-18T05:07:00.365Z,0
2022-11-18T05:07:59.967Z,0
2022-11-18T05:08:59.933Z,0
2022-11-18T05:09:59.963Z,0
2022-11-18T05:11:00.024Z,0
2022-11-18T05:11:59.996Z,0
2022-11-18T05:12:59.953Z,0
2022-11-18T05:13:59.941Z,0
2022-11-18T05:15:01.009Z,0
2022-11-18T05:15:59.980Z,0
2022-11-18T05:16:59.978Z,0
2022-11-18T05:18:00.049Z,0
2022-11-18T05:18:59.990Z,0
2022-11-18T05:20:02.797Z,0
2022-11-18T05:20:59.974Z,0
2022-11-18T05:21:59.980Z,0
2022-11-18T05:22:59.974Z,0
2022-11-18T05:24:00.002Z,0
2022-11-18T05:24:59.980Z,0
2022-11-18T05:26:07.885Z,0
2022-11-18T05:27:00.025Z,0
2022-11-18T05:28:00.016Z,0
2022-11-18T05:28:59.975Z,0
2022-11-18T05:29:59.976Z,0
2022-11-18T05:31:02.792Z,0
2022-11-18T05:32:00.017Z,0
2022-11-18T05:32:59.994Z,0
2022-11-18T05:34:00.012Z,0
2022-11-18T05:35:00.025Z,0
2022-11-18T05:36:02.194Z,0
2022-11-18T05:37:02.860Z,0
2022-11-18T05:37:59.993Z,0
2022-11-18T05:39:00.046Z,0
2022-11-18T05:39:59.998Z,0
2022-11-18T05:41:00.009Z,0
2022-11-18T05:42:01.965Z,0
2022-11-18T05:42:59.996Z,0
2022-11-18T05:44:00.137Z,0
2022-11-18T05:45:05.366Z,0
2022-11-18T05:46:00.015Z,0
2022-11-18T05:47:00.035Z,0
2022-11-18T05:48:00.003Z,0
2022-11-18T05:49:00.106Z,0
2022-11-18T05:50:02.938Z,0
2022-11-18T05:51:00.011Z,0
2022-11-18T05:52:00.032Z,0
2022-11-18T05:53:03.115Z,0
2022-11-18T05:54:00.061Z,0
2022-11-18T05:55:00.032Z,0
2022-11-18T05:56:00.038Z,0
2022-11-18T05:57:00.059Z,0
2022-11-18T05:58:02.972Z,0
2022-11-18T05:59:00.184Z,0
2022-11-18T06:00:00.059Z,0
2022-11-18T06:01:00.040Z,0
2022-11-18T06:02:00.054Z,0
2022-11-18T06:03:00.461Z,0
2022-11-18T06:04:00.043Z,0
2022-11-18T06:05:00.067Z,0
2022-11-18T06:05:59.900Z,0
2022-11-18T06:07:00.320Z,0
2022-11-18T06:08:00.045Z,0
2022-11-18T06:09:00.030Z,0
2022-11-18T06:10:06.335Z,0
2022-11-18T06:11:00.060Z,0
2022-11-18T06:12:00.108Z,0
2022-11-18T06:13:00.075Z,0
2022-11-18T06:13:59.940Z,0
2022-11-18T06:15:00.073Z,0
2022-11-18T06:16:00.086Z,0
2022-11-18T06:17:00.087Z,0
2022-11-18T06:18:00.079Z,0
2022-11-18T06:19:00.088Z,0
2022-11-18T06:20:03.093Z,0
2022-11-18T06:21:00.051Z,0
2022-11-18T06:22:00.008Z,0
2022-11-18T06:23:00.074Z,0
2022-11-18T06:24:00.093Z,0
2022-11-18T06:25:03.010Z,0
2022-11-18T06:26:00.060Z,0
2022-11-18T06:27:00.104Z,0
2022-11-18T06:28:00.083Z,0
2022-11-18T06:29:00.062Z,0
2022-11-18T06:30:01.135Z,0
2022-11-18T06:31:03.137Z,0
2022-11-18T06:32:00.141Z,0
2022-11-18T06:32:59.915Z,0
2022-11-18T06:34:00.094Z,0
2022-11-18T06:35:00.131Z,4
2022-11-18T06:36:02.999Z,4
2022-11-18T06:37:00.110Z,4
2022-11-18T06:38:00.139Z,0
2022-11-18T06:39:00.106Z,0
2022-11-18T06:40:00.109Z,0
2022-11-18T06:41:00.098Z,0
2022-11-18T06:42:02.890Z,4
2022-11-18T06:43:00.102Z,4
2022-11-18T06:44:00.123Z,0
2022-11-18T06:45:00.514Z,4
2022-11-18T06:46:03.533Z,4
2022-11-18T06:47:03.146Z,0
2022-11-18T06:48:00.097Z,4
2022-11-18T06:49:00.117Z,4
2022-11-18T06:50:00.153Z,4
2022-11-18T06:51:00.132Z,4
2022-11-18T06:52:00.154Z,4
2022-11-18T06:53:03.378Z,4
2022-11-18T06:54:00.156Z,4
2022-11-18T06:55:00.336Z,4
2022-11-18T06:56:00.124Z,4
2022-11-18T06:57:00.142Z,4
2022-11-18T06:58:01.203Z,4
2022-11-18T06:59:00.178Z,4
2022-11-18T07:00:07.276Z,4
2022-11-18T07:01:00.525Z,8
2022-11-18T07:02:00.604Z,4
2022-11-18T07:03:00.162Z,4
2022-11-18T07:04:03.278Z,8
2022-11-18T07:05:00.205Z,4
2022-11-18T07:06:00.401Z,8
2022-11-18T07:07:00.531Z,4
2022-11-18T07:08:00.644Z,4
2022-11-18T07:09:03.040Z,4
2022-11-18T07:10:00.203Z,8
2022-11-18T07:11:00.246Z,8
2022-11-18T07:12:00.172Z,8
2022-11-18T07:13:00.120Z,8
2022-11-18T07:14:00.131Z,8
2022-11-18T07:15:00.140Z,12
2022-11-18T07:16:00.149Z,12
2022-11-18T07:17:00.192Z,12
2022-11-18T07:18:00.197Z,12
2022-11-18T07:19:00.196Z,12
2022-11-18T07:20:02.964Z,12
2022-11-18T07:21:00.226Z,16
2022-11-18T07:22:00.193Z,16
2022-11-18T07:23:00.143Z,20
2022-11-18T07:24:00.165Z,20
2022-11-18T07:25:00.178Z,20
2022-11-18T07:26:00.262Z,20
2022-11-18T07:27:00.191Z,24
2022-11-18T07:28:00.170Z,24
2022-11-18T07:29:00.267Z,28
2022-11-18T07:30:00.171Z,28
2022-11-18T07:31:03.184Z,24
2022-11-18T07:32:00.208Z,28
2022-11-18T07:33:00.224Z,28
2022-11-18T07:34:00.230Z,28
2022-11-18T07:35:00.201Z,28
2022-11-18T07:36:00.188Z,28
2022-11-18T07:37:00.229Z,28
2022-11-18T07:38:00.190Z,28
2022-11-18T07:39:00.193Z,28
2022-11-18T07:40:00.224Z,28
2022-11-18T07:41:00.207Z,28
2022-11-18T07:42:03.113Z,28
2022-11-18T07:43:00.240Z,28
2022-11-18T07:44:06.891Z,24
2022-11-18T07:45:00.185Z,28
2022-11-18T07:46:00.179Z,24
2022-11-18T07:47:00.188Z,28
2022-11-18T07:48:00.216Z,32
2022-11-18T07:49:00.205Z,28
2022-11-18T07:50:00.414Z,32
2022-11-18T07:51:00.235Z,28
2022-11-18T07:52:00.202Z,32
2022-11-18T07:53:03.057Z,32
2022-11-18T07:54:00.219Z,32
2022-11-18T07:55:00.221Z,36
2022-11-18T07:56:00.227Z,36
2022-11-18T07:57:00.211Z,40
2022-11-18T07:58:01.007Z,40
2022-11-18T07:59:00.223Z,40
2022-11-18T08:00:00.235Z,44
2022-11-18T08:01:00.398Z,48
2022-11-18T08:02:00.631Z,52
2022-11-18T08:03:00.243Z,52
2022-11-18T08:04:03.267Z,52
2022-11-18T08:05:00.476Z,52
2022-11-18T08:06:00.387Z,52
2022-11-18T08:07:00.567Z,56
2022-11-18T08:08:00.255Z,56
2022-11-18T08:09:01.282Z,56
2022-11-18T08:10:00.222Z,56
2022-11-18T08:11:00.244Z,52
2022-11-18T08:12:00.233Z,52
2022-11-18T08:13:00.247Z,56
2022-11-18T08:14:00.484Z,56
2022-11-18T08:15:00.227Z,56
2022-11-18T08:16:00.231Z,60
2022-11-18T08:17:00.242Z,56
2022-11-18T08:18:00.282Z,60
2022-11-18T08:19:00.253Z,64
2022-11-18T08:20:03.021Z,60
2022-11-18T08:21:00.236Z,60
2022-11-18T08:22:00.334Z,60
2022-11-18T08:23:00.291Z,56
2022-11-18T08:24:00.259Z,56
2022-11-18T08:25:00.245Z,60
2022-11-18T08:26:00.282Z,60
2022-11-18T08:27:00.246Z,60
2022-11-18T08:28:00.282Z,60
2022-11-18T08:29:00.770Z,60
2022-11-18T08:30:00.310Z,60
2022-11-18T08:31:06.134Z,60
2022-11-18T08:32:00.288Z,60
2022-11-18T08:33:00.441Z,60
2022-11-18T08:34:00.352Z,56
2022-11-18T08:35:00.283Z,56
2022-11-18T08:36:00.273Z,60
2022-11-18T08:37:00.281Z,64
2022-11-18T08:38:00.350Z,60
2022-11-18T08:39:00.366Z,64
2022-11-18T08:40:00.287Z,64
2022-11-18T08:41:00.282Z,60
2022-11-18T08:42:00.279Z,64
2022-11-18T08:43:00.321Z,64
2022-11-18T08:44:00.316Z,60
2022-11-18T08:45:00.295Z,60
2022-11-18T08:46:00.354Z,56
2022-11-18T08:47:03.694Z,56
2022-11-18T08:48:00.316Z,52
2022-11-18T08:49:00.298Z,56
2022-11-18T08:50:00.409Z,52
2022-11-18T08:51:00.301Z,56
2022-11-18T08:52:03.132Z,56
2022-11-18T08:53:00.343Z,56
2022-11-18T08:54:00.331Z,60
2022-11-18T08:55:00.324Z,64
2022-11-18T08:56:04.026Z,64
2022-11-18T08:57:00.311Z,64
2022-11-18T08:58:03.173Z,64
2022-11-18T08:59:00.322Z,64
2022-11-18T09:00:00.491Z,64
2022-11-18T09:01:00.325Z,68
2022-11-18T09:02:00.761Z,68
2022-11-18T09:03:03.355Z,72
2022-11-18T09:04:00.356Z,68
2022-11-18T09:05:00.323Z,68
2022-11-18T09:06:00.331Z,72
2022-11-18T09:07:00.708Z,72
2022-11-18T09:08:00.355Z,72
2022-11-18T09:09:07.195Z,72
2022-11-18T09:10:00.479Z,72
2022-11-18T09:11:00.358Z,72
2022-11-18T09:12:00.327Z,72
2022-11-18T09:15:26.554Z,76
2022-11-18T09:16:30.783Z,80
2022-11-18T09:17:21.320Z,80
2022-11-18T09:18:21.337Z,84
2022-11-18T09:19:52.915Z,80
2022-11-18T09:20:21.308Z,84
2022-11-18T09:21:21.310Z,84
2022-11-18T09:22:21.331Z,88
2022-11-18T09:23:21.327Z,88
2022-11-18T09:24:22.571Z,88
2022-11-18T09:25:21.334Z,88
2022-11-18T09:26:21.349Z,88
2022-11-18T09:27:26.251Z,88
2022-11-18T09:28:21.334Z,88
2022-11-18T09:29:21.314Z,88
2022-11-18T09:30:21.301Z,88
2022-11-18T09:31:21.323Z,88
2022-11-18T09:32:21.301Z,88
2022-11-18T09:33:29.932Z,88
2022-11-18T09:34:22.268Z,84
2022-11-18T09:35:21.336Z,84
2022-11-18T09:36:21.312Z,80
2022-11-18T09:37:21.365Z,80
2022-11-18T09:38:24.081Z,80
2022-11-18T09:39:22.120Z,76
2022-11-18T09:40:21.396Z,76
2022-11-18T09:41:21.346Z,72
2022-11-18T09:42:21.406Z,68
2022-11-18T09:43:21.547Z,68
2022-11-18T09:44:21.374Z,68
2022-11-18T09:45:29.974Z,68
2022-11-18T09:46:21.354Z,68
2022-11-18T09:47:21.372Z,68
2022-11-18T09:48:21.346Z,68
2022-11-18T09:49:26.439Z,64
2022-11-18T09:50:55.637Z,68
2022-11-18T09:51:21.352Z,68
2022-11-18T09:52:21.340Z,68
2022-11-18T09:53:21.343Z,68
2022-11-18T09:54:23.171Z,72
2022-11-18T09:55:21.357Z,72
2022-11-18T09:56:21.703Z,76
2022-11-18T09:57:21.467Z,76
2022-11-18T09:58:21.421Z,76
2022-11-18T09:59:21.384Z,84
2022-11-18T10:00:21.472Z,84
2022-11-18T10:01:21.630Z,88
2022-11-18T10:02:21.661Z,88
2022-11-18T10:03:21.445Z,96
2022-11-18T10:04:22.501Z,96
2022-11-18T10:05:21.798Z,100
2022-11-18T10:06:28.293Z,104
2022-11-18T10:07:21.567Z,108
2022-11-18T10:08:21.380Z,104
2022-11-18T10:09:21.381Z,108
2022-11-18T10:10:21.634Z,112
2022-11-18T10:11:21.399Z,108
2022-11-18T10:12:21.428Z,112
2022-11-18T10:13:21.413Z,116
2022-11-18T10:14:22.497Z,112
2022-11-18T10:15:21.379Z,112
2022-11-18T10:16:22.416Z,112
2022-11-18T10:17:21.449Z,120
2022-11-18T10:19:08.627Z,120
2022-11-18T10:19:21.412Z,120
2022-11-18T10:20:21.442Z,124
2022-11-18T10:21:24.493Z,120
2022-11-18T10:22:32.694Z,124
2022-11-18T10:23:21.383Z,120
2022-11-18T10:24:23.018Z,124
2022-11-18T10:25:21.423Z,128
2022-11-18T10:26:21.404Z,128
2022-11-18T10:27:21.393Z,128
2022-11-18T10:28:21.435Z,128
2022-11-18T10:29:21.440Z,132
2022-11-18T10:30:21.560Z,132
2022-11-18T10:31:21.413Z,132
2022-11-18T10:32:24.453Z,128
2022-11-18T10:33:21.412Z,124
2022-11-18T10:34:22.236Z,120
2022-11-18T10:35:21.426Z,116
2022-11-18T10:36:21.435Z,116
2022-11-18T10:37:31.174Z,112
2022-11-18T10:38:21.471Z,112
2022-11-18T10:39:21.443Z,112
2022-11-18T10:40:21.452Z,112
2022-11-18T10:41:21.421Z,112
2022-11-18T10:42:21.419Z,112
2022-11-18T10:43:24.516Z,108
2022-11-18T10:44:22.072Z,108
2022-11-18T10:45:21.496Z,108
2022-11-18T10:46:21.475Z,108
2022-11-18T10:47:21.440Z,108
2022-11-18T10:48:24.534Z,108
2022-11-18T10:49:21.432Z,112
2022-11-18T10:50:21.464Z,120
2022-11-18T10:51:21.431Z,124
2022-11-18T10:52:21.441Z,128
2022-11-18T10:53:21.447Z,128
2022-11-18T10:54:26.371Z,124
2022-11-18T10:55:21.472Z,120
2022-11-18T10:56:21.534Z,124
2022-11-18T10:57:21.465Z,128
2022-11-18T10:58:21.690Z,136
2022-11-18T10:59:24.232Z,132
2022-11-18T11:00:21.468Z,128
2022-11-18T11:01:21.968Z,120
2022-11-18T11:02:24.745Z,120
2022-11-18T11:03:21.474Z,124
2022-11-18T11:04:22.564Z,124
2022-11-18T11:05:27.069Z,120
2022-11-18T11:06:21.450Z,116
2022-11-18T11:07:21.756Z,112
2022-11-18T11:08:43.105Z,104
2022-11-18T11:09:24.455Z,96
2022-11-18T11:10:24.605Z,96
2022-11-18T11:11:21.465Z,96
2022-11-18T11:12:21.469Z,100
2022-11-18T11:13:21.505Z,100
2022-11-18T11:14:28.710Z,100
2022-11-18T11:15:21.469Z,100
2022-11-18T11:16:28.860Z,96
2022-11-18T11:17:21.896Z,96
2022-11-18T11:18:21.514Z,96
2022-11-18T11:19:21.473Z,96
2022-11-18T11:20:21.714Z,92
2022-11-18T11:21:24.584Z,88
2022-11-18T11:22:21.445Z,96
2022-11-18T11:23:28.557Z,100
2022-11-18T11:24:22.359Z,96
2022-11-18T11:25:21.964Z,100
2022-11-18T11:28:30.963Z,132
2022-11-18T11:29:30.952Z,156
2022-11-18T11:30:30.926Z,176
2022-11-18T11:31:31.050Z,176
2022-11-18T11:32:30.898Z,164
2022-11-18T11:33:34.135Z,148
2022-11-18T11:34:30.908Z,140
2022-11-18T11:35:30.961Z,132
2022-11-18T11:36:30.947Z,128
2022-11-18T11:37:30.918Z,132
2022-11-18T11:38:30.980Z,132
2022-11-18T11:39:30.906Z,132
2022-11-18T11:40:30.989Z,128
2022-11-18T11:41:30.936Z,120
2022-11-18T11:42:30.941Z,112
2022-11-18T11:43:30.955Z,108
2022-11-18T11:44:33.735Z,100
2022-11-18T11:45:30.957Z,100
2022-11-18T11:46:33.751Z,96
2022-11-18T11:47:30.943Z,96
2022-11-18T11:48:30.922Z,96
2022-11-18T11:49:34.256Z,88
2022-11-18T11:50:30.956Z,88
2022-11-18T11:51:30.945Z,88
2022-11-18T11:52:30.969Z,84
2022-11-18T11:53:30.950Z,92
2022-11-18T11:54:30.963Z,96
2022-11-18T11:55:30.966Z,104
2022-11-18T11:56:30.962Z,116
2022-11-18T11:57:30.954Z,116
2022-11-18T11:58:30.946Z,112
2022-11-18T11:59:30.951Z,112
2022-11-18T12:00:32.056Z,120
2022-11-18T12:01:31.035Z,120
2022-11-18T12:02:31.224Z,112
2022-11-18T12:03:30.975Z,108
2022-11-18T12:04:31.005Z,112
2022-11-18T12:05:33.985Z,116
2022-11-18T12:06:30.965Z,116
2022-11-18T12:07:31.482Z,104
2022-11-18T12:08:30.956Z,100
2022-11-18T12:09:30.947Z,92
2022-11-18T12:10:30.996Z,92
2022-11-18T12:11:30.976Z,96
2022-11-18T12:12:31.069Z,96
2022-11-18T12:13:30.979Z,104
2022-11-18T12:14:32.945Z,112
2022-11-18T12:15:30.989Z,120
2022-11-18T12:16:31.005Z,120
2022-11-18T12:17:30.971Z,108
2022-11-18T12:18:30.998Z,112
2022-11-18T12:19:30.995Z,116
2022-11-18T12:20:30.832Z,124
2022-11-18T12:21:37.505Z,132
2022-11-18T12:22:30.984Z,144
2022-11-18T12:23:31.000Z,148
2022-11-18T12:24:31.055Z,140
2022-11-18T12:25:31.084Z,132
2022-11-18T12:26:30.983Z,124
2022-11-18T12:27:34.042Z,128
2022-11-18T12:28:30.883Z,116
2022-11-18T12:29:31.018Z,96
2022-11-18T12:30:31.000Z,84
2022-11-18T12:31:30.856Z,80
2022-11-18T12:32:32.101Z,76
2022-11-18T12:33:31.005Z,64
2022-11-18T12:34:31.050Z,60
2022-11-18T12:35:31.059Z,64
2022-11-18T12:36:31.008Z,68
2022-11-18T12:37:31.139Z,72
2022-11-18T12:38:38.056Z,68
2022-11-18T12:39:30.875Z,64
2022-11-18T12:40:30.870Z,60
2022-11-18T12:41:31.028Z,56
2022-11-18T12:42:31.028Z,52
2022-11-18T12:43:34.116Z,48
2022-11-18T12:44:30.862Z,44
2022-11-18T12:45:31.085Z,48
2022-11-18T12:46:31.056Z,52
2022-11-18T12:47:31.019Z,60
2022-11-18T12:48:34.403Z,72
2022-11-18T12:49:34.065Z,84
2022-11-18T12:50:31.040Z,96
2022-11-18T12:51:31.118Z,112
2022-11-18T12:52:31.161Z,128
2022-11-18T12:53:30.892Z,144
2022-11-18T12:54:33.804Z,148
2022-11-18T12:55:31.053Z,144
2022-11-18T12:56:31.072Z,140
2022-11-18T12:57:31.065Z,128
2022-11-18T12:58:31.048Z,120
2022-11-18T12:59:31.116Z,116
2022-11-18T13:00:32.318Z,112
2022-11-18T13:01:31.333Z,100
2022-11-18T13:02:31.045Z,100
2022-11-18T13:03:31.126Z,92
2022-11-18T13:04:30.903Z,92
2022-11-18T13:05:34.224Z,88
2022-11-18T13:06:31.708Z,84
2022-11-18T13:07:31.408Z,80
2022-11-18T13:08:31.062Z,84
2022-11-18T13:09:31.165Z,84
2022-11-18T13:10:31.047Z,80
2022-11-18T13:11:34.236Z,80
2022-11-18T13:12:31.066Z,80
2022-11-18T13:13:31.149Z,72
2022-11-18T13:14:31.240Z,64
2022-11-18T13:15:31.108Z,56
2022-11-18T13:16:40.194Z,48
2022-11-18T13:17:31.073Z,48
2022-11-18T13:18:30.918Z,44
2022-11-18T13:19:31.068Z,44
2022-11-18T13:20:30.917Z,48
2022-11-18T13:21:31.133Z,56
2022-11-18T13:22:33.850Z,68
2022-11-18T13:23:31.110Z,72
2022-11-18T13:24:31.080Z,76
2022-11-18T13:25:31.157Z,76
2022-11-18T13:26:31.103Z,72
2022-11-18T13:27:33.858Z,68
2022-11-18T13:28:31.108Z,68
2022-11-18T13:29:31.086Z,72
2022-11-18T13:30:31.070Z,68
2022-11-18T13:31:31.274Z,60
2022-11-18T13:32:31.417Z,52
2022-11-18T13:33:34.162Z,56
2022-11-18T13:34:31.103Z,60
2022-11-18T13:35:30.944Z,64
2022-11-18T13:36:31.310Z,72
2022-11-18T13:37:31.156Z,76
2022-11-18T13:38:35.465Z,76
2022-11-18T13:39:31.143Z,76
2022-11-18T13:40:31.131Z,76
2022-11-18T13:41:31.242Z,84
2022-11-18T13:42:31.096Z,88
2022-11-18T13:43:33.923Z,92
2022-11-18T13:44:31.134Z,84
2022-11-18T13:45:30.992Z,84
2022-11-18T13:46:31.139Z,84
2022-11-18T13:47:31.355Z,80
2022-11-18T13:48:31.127Z,80
2022-11-18T13:49:33.626Z,80
2022-11-18T13:50:31.128Z,84
2022-11-18T13:51:31.155Z,84
2022-11-18T13:52:31.147Z,80
2022-11-18T13:53:31.170Z,84
2022-11-18T13:54:31.274Z,84
2022-11-18T13:55:31.005Z,80
2022-11-18T13:56:37.839Z,80
2022-11-18T13:57:31.166Z,80
2022-11-18T13:58:33.908Z,80
2022-11-18T13:59:31.845Z,84
2022-11-18T14:00:34.398Z,80
2022-11-18T14:01:31.277Z,76
2022-11-18T14:02:31.144Z,72
2022-11-18T14:03:31.168Z,64
2022-11-18T14:04:31.347Z,56
2022-11-18T14:05:31.164Z,56
2022-11-18T14:06:31.171Z,52
2022-11-18T14:07:31.596Z,56
2022-11-18T14:08:31.185Z,52
2022-11-18T14:09:31.201Z,56
2022-11-18T14:10:34.141Z,52
2022-11-18T14:11:32.306Z,52
2022-11-18T14:12:31.171Z,52
2022-11-18T14:13:31.236Z,52
2022-11-18T14:14:31.187Z,52
2022-11-18T14:15:31.169Z,52
2022-11-18T14:16:32.147Z,48
2022-11-18T14:17:31.165Z,52
2022-11-18T14:18:31.198Z,48
2022-11-18T14:19:31.029Z,44
2022-11-18T14:20:31.215Z,44
2022-11-18T14:21:31.218Z,48
2022-11-18T14:22:31.177Z,48
2022-11-18T14:23:31.177Z,48
2022-11-18T14:24:31.205Z,52
2022-11-18T14:25:31.239Z,48
2022-11-18T14:26:31.245Z,48
2022-11-18T14:27:34.029Z,48
2022-11-18T14:28:31.182Z,44
2022-11-18T14:29:32.213Z,48
2022-11-18T14:30:31.203Z,48
2022-11-18T14:31:31.233Z,48